sensor_id;sensor_type;location;lat;lon;timestamp;P1;durP1;ratioP1;P2;durP2;ratioP2
23470;SDS011;11908;50.806;4.424;2023-04-24T00:00:57;24.73;;;13.80;;
23470;SDS011;11908;50.806;4.424;2023-04-24T00:03:24;25.00;;;14.30;;
23470;SDS011;11908;50.806;4.424;2023-04-24T00:05:49;29.55;;;14.80;;
23470;SDS011;11908;50.806;4.424;2023-04-24T00:08:16;25.77;;;14.38;;
23470;SDS011;11908;50.806;4.424;2023-04-24T00:10:42;29.08;;;14.05;;
23470;SDS011;11908;50.806;4.424;2023-04-24T00:13:08;29.55;;;14.73;;
23470;SDS011;11908;50.806;4.424;2023-04-24T00:15:33;23.17;;;14.38;;
23470;SDS011;11908;50.806;4.424;2023-04-24T00:17:59;23.30;;;14.30;;
23470;SDS011;11908;50.806;4.424;2023-04-24T00:20:26;23.67;;;13.85;;
23470;SDS011;11908;50.806;4.424;2023-04-24T00:22:54;25.42;;;13.38;;
23470;SDS011;11908;50.806;4.424;2023-04-24T00:25:20;24.83;;;14.93;;
23470;SDS011;11908;50.806;4.424;2023-04-24T00:27:46;25.08;;;13.25;;
23470;SDS011;11908;50.806;4.424;2023-04-24T00:30:11;23.52;;;14.43;;
23470;SDS011;11908;50.806;4.424;2023-04-24T00:32:37;22.88;;;14.00;;
23470;SDS011;11908;50.806;4.424;2023-04-24T00:35:03;24.27;;;14.32;;
23470;SDS011;11908;50.806;4.424;2023-04-24T00:37:30;22.10;;;13.75;;
23470;SDS011;11908;50.806;4.424;2023-04-24T00:39:56;20.50;;;13.90;;
23470;SDS011;11908;50.806;4.424;2023-04-24T00:42:22;24.80;;;14.70;;
23470;SDS011;11908;50.806;4.424;2023-04-24T00:44:48;26.98;;;14.75;;
23470;SDS011;11908;50.806;4.424;2023-04-24T00:47:14;27.63;;;14.90;;
23470;SDS011;11908;50.806;4.424;2023-04-24T00:49:40;26.73;;;14.57;;
23470;SDS011;11908;50.806;4.424;2023-04-24T00:52:06;24.15;;;14.32;;
23470;SDS011;11908;50.806;4.424;2023-04-24T00:54:34;23.98;;;13.27;;
23470;SDS011;11908;50.806;4.424;2023-04-24T00:57:00;26.63;;;14.77;;
23470;SDS011;11908;50.806;4.424;2023-04-24T00:59:27;26.05;;;15.15;;
23470;SDS011;11908;50.806;4.424;2023-04-24T01:04:18;22.90;;;13.73;;
23470;SDS011;11908;50.806;4.424;2023-04-24T01:06:45;22.98;;;13.07;;
23470;SDS011;11908;50.806;4.424;2023-04-24T01:09:11;20.88;;;13.98;;
23470;SDS011;11908;50.806;4.424;2023-04-24T01:11:37;29.33;;;15.77;;
23470;SDS011;11908;50.806;4.424;2023-04-24T01:14:03;22.20;;;12.73;;
23470;SDS011;11908;50.806;4.424;2023-04-24T01:16:29;23.90;;;14.02;;
23470;SDS011;11908;50.806;4.424;2023-04-24T01:19:08;23.25;;;14.15;;
23470;SDS011;11908;50.806;4.424;2023-04-24T01:21:37;26.63;;;14.90;;
23470;SDS011;11908;50.806;4.424;2023-04-24T01:24:03;25.70;;;15.32;;
23470;SDS011;11908;50.806;4.424;2023-04-24T01:26:30;22.98;;;15.23;;
23470;SDS011;11908;50.806;4.424;2023-04-24T01:28:56;26.35;;;16.02;;
23470;SDS011;11908;50.806;4.424;2023-04-24T01:31:22;24.23;;;15.15;;
23470;SDS011;11908;50.806;4.424;2023-04-24T01:33:48;26.75;;;15.07;;
23470;SDS011;11908;50.806;4.424;2023-04-24T01:36:15;23.45;;;14.95;;
23470;SDS011;11908;50.806;4.424;2023-04-24T01:38:41;22.38;;;14.90;;
23470;SDS011;11908;50.806;4.424;2023-04-24T01:41:07;21.42;;;14.07;;
23470;SDS011;11908;50.806;4.424;2023-04-24T01:43:33;21.48;;;14.43;;
23470;SDS011;11908;50.806;4.424;2023-04-24T01:45:59;20.15;;;14.13;;
23470;SDS011;11908;50.806;4.424;2023-04-24T01:48:24;24.55;;;15.07;;
23470;SDS011;11908;50.806;4.424;2023-04-24T01:50:50;24.25;;;15.20;;
23470;SDS011;11908;50.806;4.424;2023-04-24T01:53:16;23.73;;;15.20;;
23470;SDS011;11908;50.806;4.424;2023-04-24T01:55:42;26.08;;;15.27;;
23470;SDS011;11908;50.806;4.424;2023-04-24T01:58:08;22.63;;;16.63;;
23470;SDS011;11908;50.806;4.424;2023-04-24T02:00:33;29.05;;;17.40;;
23470;SDS011;11908;50.806;4.424;2023-04-24T02:02:59;23.60;;;16.77;;
23470;SDS011;11908;50.806;4.424;2023-04-24T02:05:26;31.55;;;18.75;;
23470;SDS011;11908;50.806;4.424;2023-04-24T02:07:52;29.52;;;17.88;;
23470;SDS011;11908;50.806;4.424;2023-04-24T02:10:18;25.17;;;18.50;;
23470;SDS011;11908;50.806;4.424;2023-04-24T02:12:44;27.48;;;18.65;;
23470;SDS011;11908;50.806;4.424;2023-04-24T02:15:10;29.52;;;18.52;;
23470;SDS011;11908;50.806;4.424;2023-04-24T02:17:36;30.73;;;18.75;;
23470;SDS011;11908;50.806;4.424;2023-04-24T02:20:02;27.83;;;18.42;;
23470;SDS011;11908;50.806;4.424;2023-04-24T02:22:28;26.58;;;19.50;;
23470;SDS011;11908;50.806;4.424;2023-04-24T02:24:54;29.58;;;18.90;;
23470;SDS011;11908;50.806;4.424;2023-04-24T02:27:20;29.42;;;19.90;;
23470;SDS011;11908;50.806;4.424;2023-04-24T02:29:46;27.17;;;18.60;;
23470;SDS011;11908;50.806;4.424;2023-04-24T02:32:11;27.00;;;18.45;;
23470;SDS011;11908;50.806;4.424;2023-04-24T02:34:37;27.25;;;17.90;;
23470;SDS011;11908;50.806;4.424;2023-04-24T02:37:03;25.20;;;18.35;;
23470;SDS011;11908;50.806;4.424;2023-04-24T02:39:29;31.15;;;17.50;;
23470;SDS011;11908;50.806;4.424;2023-04-24T02:41:54;31.27;;;18.88;;
23470;SDS011;11908;50.806;4.424;2023-04-24T02:44:20;29.92;;;17.38;;
23470;SDS011;11908;50.806;4.424;2023-04-24T02:46:47;27.42;;;17.77;;
23470;SDS011;11908;50.806;4.424;2023-04-24T02:49:13;23.92;;;16.38;;
23470;SDS011;11908;50.806;4.424;2023-04-24T02:51:38;23.63;;;15.50;;
23470;SDS011;11908;50.806;4.424;2023-04-24T02:54:06;24.77;;;16.63;;
23470;SDS011;11908;50.806;4.424;2023-04-24T02:56:33;21.15;;;14.60;;
23470;SDS011;11908;50.806;4.424;2023-04-24T02:58:59;26.95;;;15.35;;
23470;SDS011;11908;50.806;4.424;2023-04-24T03:01:24;25.27;;;15.07;;
23470;SDS011;11908;50.806;4.424;2023-04-24T03:03:50;23.70;;;15.23;;
23470;SDS011;11908;50.806;4.424;2023-04-24T03:06:16;19.50;;;13.73;;
23470;SDS011;11908;50.806;4.424;2023-04-24T03:08:42;21.05;;;13.68;;
23470;SDS011;11908;50.806;4.424;2023-04-24T03:11:07;19.20;;;13.05;;
23470;SDS011;11908;50.806;4.424;2023-04-24T03:13:33;19.92;;;13.10;;
23470;SDS011;11908;50.806;4.424;2023-04-24T03:15:59;20.83;;;12.68;;
23470;SDS011;11908;50.806;4.424;2023-04-24T03:18:24;20.65;;;12.57;;
23470;SDS011;11908;50.806;4.424;2023-04-24T03:20:50;19.67;;;12.98;;
23470;SDS011;11908;50.806;4.424;2023-04-24T03:23:16;16.52;;;12.57;;
23470;SDS011;11908;50.806;4.424;2023-04-24T03:25:42;20.52;;;13.25;;
23470;SDS011;11908;50.806;4.424;2023-04-24T03:28:08;21.00;;;13.20;;
23470;SDS011;11908;50.806;4.424;2023-04-24T03:30:33;17.02;;;12.77;;
23470;SDS011;11908;50.806;4.424;2023-04-24T03:32:59;19.80;;;13.82;;
23470;SDS011;11908;50.806;4.424;2023-04-24T03:35:25;21.65;;;14.27;;
23470;SDS011;11908;50.806;4.424;2023-04-24T03:37:51;21.20;;;13.77;;
23470;SDS011;11908;50.806;4.424;2023-04-24T03:40:16;14.85;;;12.70;;
23470;SDS011;11908;50.806;4.424;2023-04-24T03:42:42;20.67;;;13.63;;
23470;SDS011;11908;50.806;4.424;2023-04-24T03:45:08;18.73;;;13.88;;
23470;SDS011;11908;50.806;4.424;2023-04-24T03:47:34;21.48;;;12.70;;
23470;SDS011;11908;50.806;4.424;2023-04-24T03:50:00;24.52;;;13.73;;
23470;SDS011;11908;50.806;4.424;2023-04-24T03:52:26;20.73;;;13.73;;
23470;SDS011;11908;50.806;4.424;2023-04-24T03:54:51;18.52;;;12.50;;
23470;SDS011;11908;50.806;4.424;2023-04-24T03:57:17;17.35;;;12.85;;
23470;SDS011;11908;50.806;4.424;2023-04-24T03:59:43;18.70;;;12.77;;
23470;SDS011;11908;50.806;4.424;2023-04-24T04:02:08;15.45;;;10.88;;
23470;SDS011;11908;50.806;4.424;2023-04-24T04:04:34;11.75;;;8.77;;
23470;SDS011;11908;50.806;4.424;2023-04-24T04:07:00;12.00;;;9.07;;
23470;SDS011;11908;50.806;4.424;2023-04-24T04:09:27;12.80;;;9.00;;
23470;SDS011;11908;50.806;4.424;2023-04-24T04:11:53;11.98;;;9.38;;
23470;SDS011;11908;50.806;4.424;2023-04-24T04:14:20;12.32;;;8.90;;
23470;SDS011;11908;50.806;4.424;2023-04-24T04:16:46;12.15;;;8.55;;
23470;SDS011;11908;50.806;4.424;2023-04-24T04:19:12;13.63;;;8.75;;
23470;SDS011;11908;50.806;4.424;2023-04-24T04:21:37;15.90;;;8.63;;
23470;SDS011;11908;50.806;4.424;2023-04-24T04:24:03;12.02;;;8.20;;
23470;SDS011;11908;50.806;4.424;2023-04-24T04:26:30;12.23;;;8.13;;
23470;SDS011;11908;50.806;4.424;2023-04-24T04:28:57;13.25;;;8.15;;
23470;SDS011;11908;50.806;4.424;2023-04-24T04:31:23;11.20;;;7.65;;
23470;SDS011;11908;50.806;4.424;2023-04-24T04:33:49;12.52;;;7.53;;
23470;SDS011;11908;50.806;4.424;2023-04-24T04:36:15;9.20;;;6.90;;
23470;SDS011;11908;50.806;4.424;2023-04-24T04:38:42;9.35;;;7.93;;
23470;SDS011;11908;50.806;4.424;2023-04-24T04:41:09;12.45;;;8.18;;
23470;SDS011;11908;50.806;4.424;2023-04-24T04:43:35;10.23;;;7.53;;
23470;SDS011;11908;50.806;4.424;2023-04-24T04:46:01;12.48;;;7.97;;
23470;SDS011;11908;50.806;4.424;2023-04-24T04:48:28;11.63;;;7.50;;
23470;SDS011;11908;50.806;4.424;2023-04-24T04:50:56;12.35;;;7.53;;
23470;SDS011;11908;50.806;4.424;2023-04-24T04:53:22;11.10;;;7.40;;
23470;SDS011;11908;50.806;4.424;2023-04-24T04:55:48;10.70;;;8.00;;
23470;SDS011;11908;50.806;4.424;2023-04-24T04:58:13;15.23;;;10.15;;
23470;SDS011;11908;50.806;4.424;2023-04-24T05:00:39;16.42;;;11.18;;
23470;SDS011;11908;50.806;4.424;2023-04-24T05:03:06;22.65;;;11.43;;
23470;SDS011;11908;50.806;4.424;2023-04-24T05:05:32;15.82;;;12.18;;
23470;SDS011;11908;50.806;4.424;2023-04-24T05:07:57;21.42;;;12.45;;
23470;SDS011;11908;50.806;4.424;2023-04-24T05:10:23;21.88;;;12.88;;
23470;SDS011;11908;50.806;4.424;2023-04-24T05:12:49;18.48;;;12.80;;
23470;SDS011;11908;50.806;4.424;2023-04-24T05:15:14;20.77;;;13.73;;
23470;SDS011;11908;50.806;4.424;2023-04-24T05:17:40;26.65;;;13.90;;
23470;SDS011;11908;50.806;4.424;2023-04-24T05:20:06;19.88;;;13.38;;
23470;SDS011;11908;50.806;4.424;2023-04-24T05:22:32;22.13;;;14.40;;
23470;SDS011;11908;50.806;4.424;2023-04-24T05:24:58;20.88;;;13.95;;
23470;SDS011;11908;50.806;4.424;2023-04-24T05:27:24;23.38;;;14.32;;
23470;SDS011;11908;50.806;4.424;2023-04-24T05:29:49;20.05;;;13.63;;
23470;SDS011;11908;50.806;4.424;2023-04-24T05:32:15;21.15;;;14.23;;
23470;SDS011;11908;50.806;4.424;2023-04-24T05:34:41;24.83;;;14.48;;
23470;SDS011;11908;50.806;4.424;2023-04-24T05:37:08;18.02;;;13.45;;
23470;SDS011;11908;50.806;4.424;2023-04-24T05:39:35;23.02;;;15.82;;
23470;SDS011;11908;50.806;4.424;2023-04-24T05:42:01;28.35;;;16.10;;
23470;SDS011;11908;50.806;4.424;2023-04-24T05:44:28;20.55;;;14.85;;
23470;SDS011;11908;50.806;4.424;2023-04-24T05:46:54;19.95;;;14.43;;
23470;SDS011;11908;50.806;4.424;2023-04-24T05:49:20;22.10;;;14.25;;
23470;SDS011;11908;50.806;4.424;2023-04-24T05:51:46;22.73;;;13.93;;
23470;SDS011;11908;50.806;4.424;2023-04-24T05:54:12;21.70;;;15.63;;
23470;SDS011;11908;50.806;4.424;2023-04-24T05:56:38;21.10;;;14.80;;
23470;SDS011;11908;50.806;4.424;2023-04-24T05:59:04;28.42;;;16.17;;
23470;SDS011;11908;50.806;4.424;2023-04-24T06:01:30;25.00;;;15.38;;
23470;SDS011;11908;50.806;4.424;2023-04-24T06:03:56;30.02;;;16.10;;
23470;SDS011;11908;50.806;4.424;2023-04-24T06:06:22;29.70;;;15.93;;
23470;SDS011;11908;50.806;4.424;2023-04-24T06:08:49;27.02;;;15.48;;
23470;SDS011;11908;50.806;4.424;2023-04-24T06:11:14;22.70;;;14.95;;
23470;SDS011;11908;50.806;4.424;2023-04-24T06:13:40;23.10;;;15.07;;
23470;SDS011;11908;50.806;4.424;2023-04-24T06:16:06;21.67;;;14.82;;
23470;SDS011;11908;50.806;4.424;2023-04-24T06:18:32;27.55;;;15.40;;
23470;SDS011;11908;50.806;4.424;2023-04-24T06:20:58;25.95;;;15.90;;
23470;SDS011;11908;50.806;4.424;2023-04-24T06:23:23;26.20;;;15.95;;
23470;SDS011;11908;50.806;4.424;2023-04-24T06:25:49;29.95;;;16.40;;
23470;SDS011;11908;50.806;4.424;2023-04-24T06:28:15;30.58;;;17.15;;
23470;SDS011;11908;50.806;4.424;2023-04-24T06:30:40;24.30;;;16.10;;
23470;SDS011;11908;50.806;4.424;2023-04-24T06:33:06;23.58;;;16.83;;
23470;SDS011;11908;50.806;4.424;2023-04-24T06:35:32;31.83;;;17.10;;
23470;SDS011;11908;50.806;4.424;2023-04-24T06:37:58;26.75;;;16.67;;
23470;SDS011;11908;50.806;4.424;2023-04-24T06:40:23;29.08;;;17.60;;
23470;SDS011;11908;50.806;4.424;2023-04-24T06:42:49;30.98;;;18.23;;
23470;SDS011;11908;50.806;4.424;2023-04-24T06:45:15;26.27;;;17.88;;
23470;SDS011;11908;50.806;4.424;2023-04-24T06:47:40;29.48;;;17.92;;
23470;SDS011;11908;50.806;4.424;2023-04-24T06:50:06;25.20;;;16.67;;
23470;SDS011;11908;50.806;4.424;2023-04-24T06:52:32;33.28;;;18.65;;
23470;SDS011;11908;50.806;4.424;2023-04-24T06:55:01;34.25;;;18.35;;
23470;SDS011;11908;50.806;4.424;2023-04-24T06:57:28;33.28;;;19.30;;
23470;SDS011;11908;50.806;4.424;2023-04-24T06:59:54;30.63;;;18.73;;
23470;SDS011;11908;50.806;4.424;2023-04-24T07:02:20;33.97;;;18.60;;
23470;SDS011;11908;50.806;4.424;2023-04-24T07:04:46;30.02;;;19.50;;
23470;SDS011;11908;50.806;4.424;2023-04-24T07:07:12;26.65;;;18.27;;
23470;SDS011;11908;50.806;4.424;2023-04-24T07:09:39;30.80;;;18.13;;
23470;SDS011;11908;50.806;4.424;2023-04-24T07:12:07;32.58;;;18.73;;
23470;SDS011;11908;50.806;4.424;2023-04-24T07:14:36;30.38;;;18.88;;
23470;SDS011;11908;50.806;4.424;2023-04-24T07:17:05;30.73;;;17.90;;
23470;SDS011;11908;50.806;4.424;2023-04-24T07:19:32;25.58;;;17.95;;
23470;SDS011;11908;50.806;4.424;2023-04-24T07:21:59;30.42;;;17.35;;
23470;SDS011;11908;50.806;4.424;2023-04-24T07:24:25;33.08;;;18.45;;
23470;SDS011;11908;50.806;4.424;2023-04-24T07:26:51;33.47;;;18.17;;
23470;SDS011;11908;50.806;4.424;2023-04-24T07:29:17;30.63;;;17.58;;
23470;SDS011;11908;50.806;4.424;2023-04-24T07:31:43;28.00;;;17.23;;
23470;SDS011;11908;50.806;4.424;2023-04-24T07:34:09;28.73;;;16.65;;
23470;SDS011;11908;50.806;4.424;2023-04-24T07:36:34;31.60;;;16.50;;
23470;SDS011;11908;50.806;4.424;2023-04-24T07:39:00;25.65;;;14.52;;
23470;SDS011;11908;50.806;4.424;2023-04-24T07:41:26;31.27;;;15.52;;
23470;SDS011;11908;50.806;4.424;2023-04-24T07:43:53;26.92;;;14.98;;
23470;SDS011;11908;50.806;4.424;2023-04-24T07:46:18;25.92;;;15.55;;
23470;SDS011;11908;50.806;4.424;2023-04-24T07:48:45;28.63;;;15.45;;
23470;SDS011;11908;50.806;4.424;2023-04-24T07:51:13;32.38;;;14.93;;
23470;SDS011;11908;50.806;4.424;2023-04-24T07:53:39;26.88;;;15.73;;
23470;SDS011;11908;50.806;4.424;2023-04-24T07:56:05;31.05;;;18.52;;
23470;SDS011;11908;50.806;4.424;2023-04-24T07:58:31;29.48;;;17.35;;
23470;SDS011;11908;50.806;4.424;2023-04-24T08:00:56;32.47;;;16.27;;
23470;SDS011;11908;50.806;4.424;2023-04-24T08:03:22;28.27;;;15.63;;
23470;SDS011;11908;50.806;4.424;2023-04-24T08:05:48;29.27;;;14.40;;
23470;SDS011;11908;50.806;4.424;2023-04-24T08:08:15;23.05;;;14.63;;
23470;SDS011;11908;50.806;4.424;2023-04-24T08:10:41;24.23;;;14.00;;
23470;SDS011;11908;50.806;4.424;2023-04-24T08:13:07;29.00;;;13.88;;
23470;SDS011;11908;50.806;4.424;2023-04-24T08:15:33;23.60;;;12.63;;
23470;SDS011;11908;50.806;4.424;2023-04-24T08:17:58;21.48;;;11.55;;
23470;SDS011;11908;50.806;4.424;2023-04-24T08:20:24;22.65;;;10.98;;
23470;SDS011;11908;50.806;4.424;2023-04-24T08:22:50;22.30;;;11.18;;
23470;SDS011;11908;50.806;4.424;2023-04-24T08:25:16;21.17;;;10.10;;
23470;SDS011;11908;50.806;4.424;2023-04-24T08:27:42;14.65;;;8.55;;
23470;SDS011;11908;50.806;4.424;2023-04-24T08:30:08;20.30;;;9.82;;
23470;SDS011;11908;50.806;4.424;2023-04-24T08:32:34;17.42;;;10.25;;
23470;SDS011;11908;50.806;4.424;2023-04-24T08:35:00;18.45;;;9.77;;
23470;SDS011;11908;50.806;4.424;2023-04-24T08:37:26;17.52;;;8.95;;
23470;SDS011;11908;50.806;4.424;2023-04-24T08:39:52;22.80;;;14.60;;
23470;SDS011;11908;50.806;4.424;2023-04-24T08:42:18;23.40;;;9.48;;
23470;SDS011;11908;50.806;4.424;2023-04-24T08:44:45;18.45;;;9.57;;
23470;SDS011;11908;50.806;4.424;2023-04-24T08:47:11;14.45;;;7.85;;
23470;SDS011;11908;50.806;4.424;2023-04-24T08:49:37;21.10;;;7.90;;
23470;SDS011;11908;50.806;4.424;2023-04-24T08:52:04;15.30;;;7.78;;
23470;SDS011;11908;50.806;4.424;2023-04-24T08:54:30;18.58;;;6.93;;
23470;SDS011;11908;50.806;4.424;2023-04-24T08:56:59;12.00;;;6.15;;
23470;SDS011;11908;50.806;4.424;2023-04-24T08:59:26;10.60;;;5.72;;
23470;SDS011;11908;50.806;4.424;2023-04-24T09:01:53;13.10;;;6.10;;
23470;SDS011;11908;50.806;4.424;2023-04-24T09:04:20;10.88;;;5.00;;
23470;SDS011;11908;50.806;4.424;2023-04-24T09:06:49;9.85;;;5.50;;
23470;SDS011;11908;50.806;4.424;2023-04-24T09:09:22;8.75;;;4.57;;
23470;SDS011;11908;50.806;4.424;2023-04-24T09:11:49;10.48;;;4.70;;
23470;SDS011;11908;50.806;4.424;2023-04-24T09:14:16;11.35;;;4.55;;
23470;SDS011;11908;50.806;4.424;2023-04-24T09:16:42;10.93;;;4.50;;
23470;SDS011;11908;50.806;4.424;2023-04-24T09:19:08;12.63;;;4.75;;
23470;SDS011;11908;50.806;4.424;2023-04-24T09:21:34;15.27;;;4.70;;
23470;SDS011;11908;50.806;4.424;2023-04-24T09:24:01;11.68;;;4.15;;
23470;SDS011;11908;50.806;4.424;2023-04-24T09:26:30;9.50;;;4.30;;
23470;SDS011;11908;50.806;4.424;2023-04-24T09:28:57;7.15;;;3.90;;
23470;SDS011;11908;50.806;4.424;2023-04-24T09:31:23;11.13;;;4.38;;
23470;SDS011;11908;50.806;4.424;2023-04-24T09:33:55;10.55;;;4.40;;
23470;SDS011;11908;50.806;4.424;2023-04-24T09:36:29;9.90;;;4.60;;
23470;SDS011;11908;50.806;4.424;2023-04-24T09:38:59;10.27;;;5.18;;
23470;SDS011;11908;50.806;4.424;2023-04-24T09:41:26;12.82;;;5.30;;
23470;SDS011;11908;50.806;4.424;2023-04-24T09:43:56;11.63;;;5.72;;
23470;SDS011;11908;50.806;4.424;2023-04-24T09:46:28;11.95;;;5.32;;
23470;SDS011;11908;50.806;4.424;2023-04-24T09:48:56;10.70;;;4.50;;
23470;SDS011;11908;50.806;4.424;2023-04-24T09:51:35;6.13;;;3.63;;
23470;SDS011;11908;50.806;4.424;2023-04-24T09:54:02;10.38;;;4.45;;
23470;SDS011;11908;50.806;4.424;2023-04-24T09:56:50;9.05;;;3.30;;
23470;SDS011;11908;50.806;4.424;2023-04-24T09:59:19;11.07;;;4.47;;
23470;SDS011;11908;50.806;4.424;2023-04-24T10:01:45;10.45;;;4.30;;
23470;SDS011;11908;50.806;4.424;2023-04-24T10:06:50;9.23;;;4.10;;
23470;SDS011;11908;50.806;4.424;2023-04-24T10:09:17;11.63;;;4.22;;
23470;SDS011;11908;50.806;4.424;2023-04-24T10:11:45;7.28;;;3.83;;
23470;SDS011;11908;50.806;4.424;2023-04-24T10:14:16;8.68;;;3.97;;
23470;SDS011;11908;50.806;4.424;2023-04-24T10:16:43;11.88;;;3.80;;
23470;SDS011;11908;50.806;4.424;2023-04-24T10:19:11;11.98;;;3.97;;
23470;SDS011;11908;50.806;4.424;2023-04-24T10:21:38;10.73;;;3.97;;
23470;SDS011;11908;50.806;4.424;2023-04-24T10:24:10;7.20;;;3.90;;
23470;SDS011;11908;50.806;4.424;2023-04-24T10:26:37;11.68;;;4.15;;
23470;SDS011;11908;50.806;4.424;2023-04-24T10:29:05;11.13;;;4.03;;
23470;SDS011;11908;50.806;4.424;2023-04-24T10:31:35;13.10;;;4.28;;
23470;SDS011;11908;50.806;4.424;2023-04-24T10:34:01;7.78;;;4.68;;
23470;SDS011;11908;50.806;4.424;2023-04-24T10:36:28;9.55;;;4.63;;
23470;SDS011;11908;50.806;4.424;2023-04-24T10:38:57;9.77;;;5.25;;
23470;SDS011;11908;50.806;4.424;2023-04-24T10:41:26;15.07;;;5.93;;
23470;SDS011;11908;50.806;4.424;2023-04-24T10:44:05;10.95;;;4.80;;
23470;SDS011;11908;50.806;4.424;2023-04-24T10:46:31;13.82;;;5.47;;
23470;SDS011;11908;50.806;4.424;2023-04-24T10:48:57;9.38;;;5.00;;
23470;SDS011;11908;50.806;4.424;2023-04-24T10:51:23;10.93;;;5.18;;
23470;SDS011;11908;50.806;4.424;2023-04-24T10:53:50;10.75;;;5.28;;
23470;SDS011;11908;50.806;4.424;2023-04-24T10:56:17;9.90;;;4.90;;
23470;SDS011;11908;50.806;4.424;2023-04-24T10:58:50;13.35;;;4.85;;
23470;SDS011;11908;50.806;4.424;2023-04-24T11:01:30;13.02;;;5.90;;
23470;SDS011;11908;50.806;4.424;2023-04-24T11:04:01;9.48;;;4.65;;
23470;SDS011;11908;50.806;4.424;2023-04-24T11:06:28;10.35;;;5.05;;
23470;SDS011;11908;50.806;4.424;2023-04-24T11:09:06;8.85;;;5.30;;
23470;SDS011;11908;50.806;4.424;2023-04-24T11:11:33;12.25;;;5.07;;
23470;SDS011;11908;50.806;4.424;2023-04-24T11:14:01;11.77;;;4.97;;
23470;SDS011;11908;50.806;4.424;2023-04-24T11:19:23;8.75;;;4.63;;
23470;SDS011;11908;50.806;4.424;2023-04-24T11:21:54;11.95;;;5.30;;
23470;SDS011;11908;50.806;4.424;2023-04-24T11:27:00;7.65;;;4.55;;
23470;SDS011;11908;50.806;4.424;2023-04-24T11:32:29;7.80;;;4.03;;
23470;SDS011;11908;50.806;4.424;2023-04-24T11:35:00;10.50;;;4.30;;
23470;SDS011;11908;50.806;4.424;2023-04-24T11:37:37;8.65;;;4.88;;
23470;SDS011;11908;50.806;4.424;2023-04-24T11:40:04;9.57;;;4.75;;
23470;SDS011;11908;50.806;4.424;2023-04-24T11:42:35;7.95;;;4.55;;
23470;SDS011;11908;50.806;4.424;2023-04-24T11:45:09;7.10;;;4.72;;
23470;SDS011;11908;50.806;4.424;2023-04-24T11:47:36;9.82;;;5.47;;
23470;SDS011;11908;50.806;4.424;2023-04-24T11:50:03;10.75;;;5.40;;
23470;SDS011;11908;50.806;4.424;2023-04-24T11:52:30;9.18;;;5.18;;
23470;SDS011;11908;50.806;4.424;2023-04-24T11:54:56;10.65;;;5.63;;
23470;SDS011;11908;50.806;4.424;2023-04-24T11:57:22;14.55;;;6.32;;
23470;SDS011;11908;50.806;4.424;2023-04-24T11:59:52;11.02;;;6.45;;
23470;SDS011;11908;50.806;4.424;2023-04-24T12:02:25;9.73;;;5.32;;
23470;SDS011;11908;50.806;4.424;2023-04-24T12:04:55;8.32;;;5.38;;
23470;SDS011;11908;50.806;4.424;2023-04-24T12:07:21;9.65;;;5.65;;
23470;SDS011;11908;50.806;4.424;2023-04-24T12:09:49;13.65;;;5.60;;
23470;SDS011;11908;50.806;4.424;2023-04-24T12:12:20;10.38;;;5.53;;
23470;SDS011;11908;50.806;4.424;2023-04-24T12:14:52;11.35;;;6.03;;
23470;SDS011;11908;50.806;4.424;2023-04-24T12:19:56;12.00;;;5.47;;
23470;SDS011;11908;50.806;4.424;2023-04-24T12:22:24;9.43;;;5.95;;
23470;SDS011;11908;50.806;4.424;2023-04-24T12:25:00;9.75;;;6.13;;
23470;SDS011;11908;50.806;4.424;2023-04-24T12:27:31;10.30;;;6.13;;
23470;SDS011;11908;50.806;4.424;2023-04-24T12:30:02;9.93;;;5.60;;
23470;SDS011;11908;50.806;4.424;2023-04-24T12:32:30;8.20;;;5.30;;
23470;SDS011;11908;50.806;4.424;2023-04-24T12:34:56;8.20;;;5.75;;
23470;SDS011;11908;50.806;4.424;2023-04-24T12:37:23;7.15;;;5.70;;
23470;SDS011;11908;50.806;4.424;2023-04-24T12:40:00;9.23;;;6.07;;
23470;SDS011;11908;50.806;4.424;2023-04-24T12:42:27;10.20;;;5.68;;
23470;SDS011;11908;50.806;4.424;2023-04-24T12:44:58;6.55;;;4.60;;
23470;SDS011;11908;50.806;4.424;2023-04-24T12:47:26;12.00;;;5.55;;
23470;SDS011;11908;50.806;4.424;2023-04-24T12:49:52;9.23;;;5.50;;
23470;SDS011;11908;50.806;4.424;2023-04-24T12:52:20;7.85;;;5.45;;
23470;SDS011;11908;50.806;4.424;2023-04-24T12:54:49;12.13;;;4.97;;
23470;SDS011;11908;50.806;4.424;2023-04-24T12:57:16;9.77;;;4.85;;
23470;SDS011;11908;50.806;4.424;2023-04-24T12:59:42;6.20;;;4.68;;
23470;SDS011;11908;50.806;4.424;2023-04-24T13:02:08;8.70;;;5.22;;
23470;SDS011;11908;50.806;4.424;2023-04-24T13:04:35;6.43;;;4.60;;
23470;SDS011;11908;50.806;4.424;2023-04-24T13:07:01;9.35;;;4.65;;
23470;SDS011;11908;50.806;4.424;2023-04-24T13:09:27;8.35;;;4.78;;
23470;SDS011;11908;50.806;4.424;2023-04-24T13:11:53;5.78;;;4.63;;
23470;SDS011;11908;50.806;4.424;2023-04-24T13:14:19;8.05;;;4.38;;
23470;SDS011;11908;50.806;4.424;2023-04-24T13:16:45;10.82;;;4.72;;
23470;SDS011;11908;50.806;4.424;2023-04-24T13:19:10;7.13;;;4.07;;
23470;SDS011;11908;50.806;4.424;2023-04-24T13:21:36;7.55;;;4.53;;
23470;SDS011;11908;50.806;4.424;2023-04-24T13:24:02;8.90;;;4.85;;
23470;SDS011;11908;50.806;4.424;2023-04-24T13:26:29;10.85;;;4.30;;
23470;SDS011;11908;50.806;4.424;2023-04-24T13:28:55;10.02;;;4.18;;
23470;SDS011;11908;50.806;4.424;2023-04-24T13:31:21;9.02;;;3.55;;
23470;SDS011;11908;50.806;4.424;2023-04-24T13:33:47;5.18;;;3.30;;
23470;SDS011;11908;50.806;4.424;2023-04-24T13:36:13;5.05;;;3.47;;
23470;SDS011;11908;50.806;4.424;2023-04-24T13:38:38;10.65;;;3.72;;
23470;SDS011;11908;50.806;4.424;2023-04-24T13:41:04;9.18;;;3.33;;
23470;SDS011;11908;50.806;4.424;2023-04-24T13:43:29;7.35;;;3.60;;
23470;SDS011;11908;50.806;4.424;2023-04-24T13:45:55;5.60;;;3.47;;
23470;SDS011;11908;50.806;4.424;2023-04-24T13:48:21;6.97;;;3.47;;
23470;SDS011;11908;50.806;4.424;2023-04-24T13:50:46;3.88;;;2.72;;
23470;SDS011;11908;50.806;4.424;2023-04-24T13:53:14;7.88;;;3.55;;
23470;SDS011;11908;50.806;4.424;2023-04-24T13:55:40;6.35;;;2.78;;
23470;SDS011;11908;50.806;4.424;2023-04-24T13:58:06;6.78;;;3.10;;
23470;SDS011;11908;50.806;4.424;2023-04-24T14:00:32;5.05;;;2.97;;
23470;SDS011;11908;50.806;4.424;2023-04-24T14:02:58;9.45;;;3.83;;
23470;SDS011;11908;50.806;4.424;2023-04-24T14:05:24;6.65;;;2.83;;
23470;SDS011;11908;50.806;4.424;2023-04-24T14:07:50;7.32;;;2.88;;
23470;SDS011;11908;50.806;4.424;2023-04-24T14:10:16;9.73;;;3.10;;
23470;SDS011;11908;50.806;4.424;2023-04-24T14:12:41;6.63;;;2.92;;
23470;SDS011;11908;50.806;4.424;2023-04-24T14:15:07;6.18;;;2.78;;
23470;SDS011;11908;50.806;4.424;2023-04-24T14:17:33;6.40;;;2.92;;
23470;SDS011;11908;50.806;4.424;2023-04-24T14:19:59;4.70;;;2.40;;
23470;SDS011;11908;50.806;4.424;2023-04-24T14:22:25;7.72;;;2.63;;
23470;SDS011;11908;50.806;4.424;2023-04-24T14:24:51;5.32;;;2.67;;
23470;SDS011;11908;50.806;4.424;2023-04-24T14:27:17;4.38;;;2.70;;
23470;SDS011;11908;50.806;4.424;2023-04-24T14:29:42;6.70;;;2.05;;
23470;SDS011;11908;50.806;4.424;2023-04-24T14:32:10;6.47;;;2.35;;
23470;SDS011;11908;50.806;4.424;2023-04-24T14:34:35;7.93;;;2.35;;
23470;SDS011;11908;50.806;4.424;2023-04-24T14:37:01;6.07;;;2.10;;
23470;SDS011;11908;50.806;4.424;2023-04-24T14:39:27;4.85;;;2.53;;
23470;SDS011;11908;50.806;4.424;2023-04-24T14:41:53;5.05;;;2.28;;
23470;SDS011;11908;50.806;4.424;2023-04-24T14:44:19;5.63;;;2.55;;